createdAt,value
2022-10-29T00:00:55.799Z,6.67
2022-10-29T00:03:48.670Z,6.83
2022-10-29T00:09:18.887Z,7.80
2022-10-29T00:14:53.480Z,6.95
2022-10-29T00:17:44.993Z,6.42
2022-10-29T00:20:36.286Z,6.35
2022-10-29T00:23:27.599Z,6.78
2022-10-29T00:26:20.009Z,6.08
2022-10-29T00:29:11.083Z,6.65
2022-10-29T00:34:45.403Z,6.33
2022-10-29T00:40:16.291Z,6.97
2022-10-29T00:43:17.580Z,6.17
2022-10-29T00:46:12.183Z,5.67
2022-10-29T00:49:04.175Z,5.83
2022-10-29T00:51:56.037Z,5.40
2022-10-29T00:54:48.745Z,6.33
2022-10-29T00:57:42.554Z,6.20
2022-10-29T01:00:33.998Z,5.40
2022-10-29T01:03:25.591Z,5.90
2022-10-29T01:06:17.001Z,5.72
2022-10-29T01:09:08.228Z,5.95
2022-10-29T01:12:06.655Z,5.58
2022-10-29T01:15:04.493Z,5.25
2022-10-29T01:18:01.781Z,6.20
2022-10-29T01:21:29.563Z,5.83
2022-10-29T01:24:56.582Z,5.20
2022-10-29T01:28:10.131Z,5.22
2022-10-29T01:31:12.823Z,4.80
2022-10-29T01:36:54.238Z,4.80
2022-10-29T01:39:48.412Z,5.37
2022-10-29T01:42:41.703Z,5.12
2022-10-29T01:45:35.244Z,4.72
2022-10-29T01:48:33.059Z,5.03
2022-10-29T01:56:57.542Z,6.35
2022-10-29T01:59:55.435Z,5.80
2022-10-29T02:02:52.915Z,6.12
2022-10-29T02:05:47.575Z,5.30
2022-10-29T02:08:43.056Z,5.95
2022-10-29T02:11:37.486Z,6.05
2022-10-29T02:14:31.847Z,5.97
2022-10-29T02:17:22.882Z,5.50
2022-10-29T02:20:16.402Z,5.85
2022-10-29T02:23:07.840Z,5.78
2022-10-29T02:25:59.041Z,6.80
2022-10-29T02:28:50.436Z,5.87
2022-10-29T02:34:20.853Z,6.08
2022-10-29T02:37:11.882Z,5.55
2022-10-29T02:40:03.229Z,5.60
2022-10-29T02:42:55.048Z,5.70
2022-10-29T02:45:46.877Z,5.92
2022-10-29T02:51:20.260Z,5.50
2022-10-29T02:54:11.315Z,5.87
2022-10-29T02:57:02.528Z,5.85
2022-10-29T02:59:54.070Z,6.00
2022-10-29T03:02:45.560Z,5.50
2022-10-29T03:08:20.239Z,6.12
2022-10-29T03:11:11.302Z,6.20
2022-10-29T03:14:02.477Z,6.37
2022-10-29T03:16:54.106Z,6.47
2022-10-29T03:22:24.484Z,6.03
2022-10-29T03:25:15.405Z,6.53
2022-10-29T03:28:07.107Z,6.20
2022-10-29T03:30:58.287Z,5.35
2022-10-29T03:33:49.702Z,5.90
2022-10-29T03:36:41.117Z,6.17
2022-10-29T03:39:32.296Z,5.60
2022-10-29T03:42:23.902Z,5.72
2022-10-29T03:45:15.521Z,6.20
2022-10-29T03:48:08.255Z,5.50
2022-10-29T03:51:01.626Z,5.92
2022-10-29T03:53:52.811Z,5.95
2022-10-29T03:59:35.244Z,6.33
2022-10-29T04:02:26.921Z,5.47
2022-10-29T04:07:59.109Z,5.35
2022-10-29T04:10:51.777Z,6.00
2022-10-29T04:13:43.336Z,5.70
2022-10-29T04:16:34.439Z,5.87
2022-10-29T04:19:26.138Z,5.92
2022-10-29T04:24:12.329Z,5.92
2022-10-29T04:30:57.184Z,6.30
2022-10-29T04:33:48.749Z,5.70
2022-10-29T04:39:21.028Z,5.22
2022-10-29T04:44:53.746Z,5.90
2022-10-29T04:47:44.856Z,5.58
2022-10-29T04:50:38.352Z,5.92
2022-10-29T04:53:29.543Z,6.47
2022-10-29T04:56:21.424Z,5.75
2022-10-29T04:59:12.635Z,5.80
2022-10-29T05:04:47.565Z,5.67
2022-10-29T05:07:39.085Z,5.50
2022-10-29T05:10:31.759Z,5.80
2022-10-29T05:19:59.150Z,5.95
2022-10-29T05:22:50.770Z,6.22
2022-10-29T05:25:43.008Z,6.70
2022-10-29T05:28:34.529Z,6.53
2022-10-29T05:31:26.238Z,5.40
2022-10-29T05:34:17.717Z,5.75
2022-10-29T05:39:48.930Z,6.50
2022-10-29T05:42:46.385Z,5.92
2022-10-29T05:45:33.561Z,6.65
2022-10-29T05:48:24.525Z,5.33
2022-10-29T05:51:16.127Z,5.50
2022-10-29T05:54:07.987Z,5.67
2022-10-29T05:59:40.967Z,5.58
2022-10-29T06:02:32.232Z,5.05
2022-10-29T06:05:24.608Z,5.47
2022-10-29T06:08:17.256Z,5.92
2022-10-29T06:13:48.579Z,5.90
2022-10-29T06:19:19.584Z,5.65
2022-10-29T06:24:50.246Z,5.17
2022-10-29T06:27:41.547Z,5.12
2022-10-29T06:30:35.729Z,5.10
2022-10-29T06:33:27.299Z,5.40
2022-10-29T06:36:18.621Z,5.75
2022-10-29T06:39:10.084Z,5.67
2022-10-29T06:44:40.532Z,5.78
2022-10-29T06:47:31.925Z,5.72
2022-10-29T06:50:23.917Z,5.28
2022-10-29T06:53:17.729Z,5.65
2022-10-29T06:56:09.224Z,5.30
2022-10-29T06:59:00.232Z,4.97
2022-10-29T07:01:51.691Z,4.75
2022-10-29T07:04:42.833Z,5.45
2022-10-29T07:07:33.921Z,4.72
2022-10-29T07:10:26.113Z,5.72
2022-10-29T07:13:17.626Z,5.80
2022-10-29T07:16:10.055Z,6.47
2022-10-29T07:19:01.330Z,6.42
2022-10-29T07:21:52.905Z,5.97
2022-10-29T07:24:44.408Z,6.35
2022-10-29T07:27:35.769Z,6.47
2022-10-29T07:30:27.110Z,6.12
2022-10-29T07:33:19.046Z,6.50
2022-10-29T07:36:10.840Z,6.45
2022-10-29T07:39:04.125Z,5.80
2022-10-29T07:41:59.084Z,5.92
2022-10-29T07:44:48.411Z,6.22
2022-10-29T07:47:39.578Z,6.53
2022-10-29T07:50:32.325Z,5.90
2022-10-29T07:53:23.586Z,6.78
2022-10-29T07:56:15.232Z,7.35
2022-10-29T07:59:08.563Z,7.60
2022-10-29T08:02:00.073Z,6.33
2022-10-29T08:04:51.845Z,5.97
2022-10-29T08:07:43.472Z,6.53
2022-10-29T08:10:35.543Z,6.25
2022-10-29T08:13:27.393Z,6.15
2022-10-29T08:16:19.464Z,5.67
2022-10-29T08:19:11.863Z,5.75
2022-10-29T08:22:03.284Z,5.78
2022-10-29T08:24:55.072Z,6.35
2022-10-29T08:27:46.634Z,6.08
2022-10-29T08:30:37.853Z,6.45
2022-10-29T08:33:29.127Z,5.62
2022-10-29T08:36:20.486Z,6.15
2022-10-29T08:39:12.020Z,5.60
2022-10-29T08:42:08.939Z,5.60
2022-10-29T08:45:17.771Z,5.30
2022-10-29T08:48:23.578Z,5.87
2022-10-29T08:51:20.242Z,5.55
2022-10-29T08:54:32.354Z,5.60
2022-10-29T08:57:13.920Z,4.80
2022-10-29T09:03:01.210Z,5.37
2022-10-29T09:51:47.958Z,4.85
2022-10-29T09:54:38.976Z,4.67
2022-10-29T09:57:33.060Z,4.83
2022-10-29T10:00:27.296Z,4.83
2022-10-29T10:03:22.454Z,4.87
2022-10-29T10:06:16.386Z,4.55
2022-10-29T10:09:08.584Z,5.28
2022-10-29T10:12:00.078Z,5.00
2022-10-29T10:14:53.342Z,5.33
2022-10-29T10:18:00.396Z,4.25
2022-10-29T10:21:12.757Z,4.40
2022-10-29T10:24:04.441Z,3.92
2022-10-29T10:26:55.834Z,4.20
2022-10-29T10:29:49.555Z,3.52
2022-10-29T10:32:40.681Z,4.17
2022-10-29T11:32:26.509Z,3.40
2022-10-29T11:35:24.510Z,3.27
2022-10-29T11:41:13.174Z,3.55
2022-10-29T11:44:04.439Z,3.15
2022-10-29T11:47:03.600Z,3.80
2022-10-29T11:50:02.744Z,3.00
2022-10-29T12:07:47.489Z,3.65
2022-10-29T12:10:49.220Z,3.33
2022-10-29T12:13:50.266Z,3.17
2022-10-29T12:16:47.427Z,3.50
2022-10-29T12:19:45.075Z,3.33
2022-10-29T12:22:41.222Z,3.02
2022-10-29T12:25:40.096Z,3.10
2022-10-29T12:28:36.781Z,2.95
2022-10-29T12:31:32.724Z,3.20
2022-10-29T12:34:29.067Z,2.90
2022-10-29T12:37:24.733Z,3.25
2022-10-29T12:40:19.978Z,3.30
2022-10-29T12:43:15.450Z,3.33
2022-10-29T12:46:19.950Z,3.42
2022-10-29T12:49:08.588Z,2.62
2022-10-29T12:52:03.101Z,3.72
2022-10-29T12:54:55.847Z,3.22
2022-10-29T12:57:47.188Z,3.02
2022-10-29T13:00:57.314Z,3.30
2022-10-29T13:04:04.134Z,3.50
2022-10-29T13:07:06.442Z,3.65
2022-10-29T13:10:33.534Z,3.50
2022-10-29T13:16:33.528Z,3.70
2022-10-29T13:19:48.276Z,3.35
2022-10-29T13:22:57.325Z,3.90
2022-10-29T13:25:50.362Z,3.77
2022-10-29T13:28:53.210Z,4.17
2022-10-29T13:31:50.481Z,3.45
2022-10-29T13:35:01.787Z,4.27
2022-10-29T13:37:54.778Z,3.40
2022-10-29T13:41:13.023Z,3.50
2022-10-29T13:44:08.890Z,3.50
2022-10-29T13:47:02.693Z,3.33
2022-10-29T13:49:54.308Z,3.75
2022-10-29T13:52:48.076Z,3.00
2022-10-29T13:55:41.537Z,3.75
2022-10-29T13:58:38.655Z,3.90
2022-10-29T14:01:33.150Z,3.70
2022-10-29T14:04:29.176Z,3.37
2022-10-29T14:07:23.589Z,3.30
2022-10-29T14:10:20.346Z,3.52
2022-10-29T14:13:14.456Z,3.45
2022-10-29T14:16:10.734Z,3.55
2022-10-29T14:19:15.034Z,3.60
2022-10-29T14:22:17.427Z,3.55
2022-10-29T14:28:19.596Z,4.53
2022-10-29T14:31:16.462Z,4.55
2022-10-29T14:34:09.236Z,4.12
2022-10-29T14:37:03.377Z,3.90
2022-10-29T14:39:59.086Z,3.98
2022-10-29T14:42:54.872Z,3.70
2022-10-29T14:45:46.388Z,3.77
2022-10-29T14:48:38.113Z,3.67
2022-10-29T14:51:31.553Z,4.67
2022-10-29T14:54:26.427Z,3.85
2022-10-29T14:57:20.411Z,3.95
2022-10-29T15:03:09.400Z,3.77
2022-10-29T15:06:19.221Z,3.95
2022-10-29T15:12:32.775Z,3.52
2022-10-29T15:15:27.281Z,3.15
2022-10-29T15:18:21.449Z,3.52
2022-10-29T15:21:12.635Z,4.00
2022-10-29T15:24:07.404Z,3.50
2022-10-29T15:27:02.295Z,3.58
2022-10-29T15:29:55.314Z,3.65
2022-10-29T15:32:46.994Z,3.52
2022-10-29T15:35:39.986Z,3.40
2022-10-29T15:39:12.605Z,4.40
2022-10-29T15:42:04.147Z,4.47
2022-10-29T15:45:21.114Z,4.92
2022-10-29T15:48:36.230Z,4.97
2022-10-29T15:51:29.930Z,4.45
2022-10-29T15:54:21.072Z,5.05
2022-10-29T15:57:14.981Z,4.25
2022-10-29T16:00:08.650Z,4.92
2022-10-29T16:03:04.148Z,3.92
2022-10-29T16:05:58.130Z,4.62
2022-10-29T16:08:52.286Z,4.28
2022-10-29T16:11:43.677Z,3.90
2022-10-29T16:14:34.655Z,3.95
2022-10-29T16:17:25.494Z,3.80
2022-10-29T16:20:18.880Z,3.90
2022-10-29T16:23:12.336Z,4.00
2022-10-29T16:26:03.387Z,4.33
2022-10-29T16:28:55.020Z,4.35
2022-10-29T16:31:46.316Z,4.40
2022-10-29T16:34:37.825Z,4.58
2022-10-29T16:37:29.290Z,3.95
2022-10-29T16:40:23.118Z,4.40
2022-10-29T16:43:14.638Z,4.20
2022-10-29T16:46:06.271Z,3.60
2022-10-29T16:48:57.904Z,3.83
2022-10-29T16:51:49.231Z,3.77
2022-10-29T16:54:40.887Z,4.30
2022-10-29T16:57:32.518Z,4.35
2022-10-29T17:00:26.107Z,3.72
2022-10-29T17:03:19.995Z,5.25
2022-10-29T17:06:12.646Z,4.95
2022-10-29T17:09:05.586Z,6.30
2022-10-29T17:11:56.715Z,6.08
2022-10-29T17:14:48.008Z,5.53
2022-10-29T17:17:42.341Z,6.33
2022-10-29T17:20:31.932Z,5.20
2022-10-29T17:23:23.324Z,6.10
2022-10-29T17:26:14.758Z,5.50
2022-10-29T17:29:06.462Z,5.25
2022-10-29T17:31:57.788Z,4.00
2022-10-29T17:34:49.359Z,4.33
2022-10-29T17:37:40.784Z,4.40
2022-10-29T17:40:32.362Z,4.85
2022-10-29T17:43:23.853Z,4.58
2022-10-29T17:46:15.686Z,4.80
2022-10-29T17:49:06.810Z,5.90
2022-10-29T17:51:58.142Z,6.15
2022-10-29T17:54:49.704Z,6.58
2022-10-29T17:57:41.613Z,6.15
2022-10-29T18:00:33.379Z,5.92
2022-10-29T18:03:28.235Z,6.20
2022-10-29T18:06:19.812Z,6.25
2022-10-29T18:09:11.441Z,4.75
2022-10-29T18:12:02.940Z,4.70
2022-10-29T18:14:54.462Z,5.70
2022-10-29T18:17:46.272Z,6.20
2022-10-29T18:20:37.876Z,6.55
2022-10-29T18:23:29.211Z,7.58
2022-10-29T18:26:26.629Z,8.23
2022-10-29T18:29:18.223Z,8.90
2022-10-29T18:32:09.329Z,8.73
2022-10-29T18:35:00.755Z,8.30
2022-10-29T18:37:52.168Z,9.35
2022-10-29T18:40:43.716Z,9.35
2022-10-29T18:43:36.009Z,6.72
2022-10-29T18:46:27.375Z,7.47
2022-10-29T18:49:18.462Z,7.80
2022-10-29T18:52:09.941Z,6.67
2022-10-29T18:55:01.380Z,6.70
2022-10-29T18:57:52.478Z,6.92
2022-10-29T19:00:44.290Z,7.58
2022-10-29T19:03:35.866Z,7.05
2022-10-29T19:06:28.845Z,6.87
2022-10-29T19:09:20.125Z,7.28
2022-10-29T19:14:51.958Z,8.18
2022-10-29T19:17:43.176Z,8.15
2022-10-29T19:20:37.080Z,8.05
2022-10-29T19:23:27.986Z,8.65
2022-10-29T19:26:19.853Z,7.15
2022-10-29T19:29:11.878Z,7.25
2022-10-29T19:32:03.125Z,7.03
2022-10-29T19:34:54.054Z,7.15
2022-10-29T19:37:44.952Z,6.47
2022-10-29T19:43:18.547Z,5.80
2022-10-29T19:46:12.404Z,5.80
2022-10-29T19:49:03.609Z,5.83
2022-10-29T19:51:56.473Z,5.97
2022-10-29T19:54:47.541Z,5.83
2022-10-29T19:57:38.837Z,5.55
2022-10-29T20:03:10.524Z,6.55
2022-10-29T20:06:01.459Z,6.25
2022-10-29T20:08:52.457Z,5.37
2022-10-29T20:11:44.235Z,6.60
2022-10-29T20:14:35.704Z,6.50
2022-10-29T20:17:26.846Z,5.67
2022-10-29T20:20:18.170Z,5.83
2022-10-29T20:23:09.763Z,5.72
2022-10-29T20:26:00.901Z,5.85
2022-10-29T20:28:52.326Z,6.53
2022-10-29T20:31:44.020Z,6.78
2022-10-29T20:34:35.170Z,6.65
2022-10-29T20:40:06.726Z,8.20
2022-10-29T20:42:57.863Z,8.10
2022-10-29T20:45:49.026Z,7.60
2022-10-29T20:51:19.502Z,7.20
2022-10-29T20:54:10.815Z,7.05
2022-10-29T20:57:02.054Z,7.22
2022-10-29T20:59:53.380Z,7.53
2022-10-29T21:02:44.418Z,7.65
2022-10-29T21:05:35.717Z,7.62
2022-10-29T21:11:21.655Z,7.25
2022-10-29T21:16:51.047Z,6.90
2022-10-29T21:19:42.891Z,8.03
2022-10-29T21:22:33.872Z,6.70
2022-10-29T21:25:25.161Z,6.78
2022-10-29T21:28:16.393Z,7.47
2022-10-29T21:31:08.042Z,7.60
2022-10-29T21:33:59.353Z,7.20
2022-10-29T21:36:50.524Z,7.35
2022-10-29T21:42:19.725Z,6.60
2022-10-29T21:45:11.916Z,6.97
2022-10-29T21:48:03.248Z,6.70
2022-10-29T21:51:00.703Z,6.58
2022-10-29T21:53:51.922Z,6.37
2022-10-29T21:56:42.981Z,5.92
2022-10-29T21:59:34.176Z,6.67
2022-10-29T22:02:25.231Z,5.90
2022-10-29T22:05:16.611Z,6.20
2022-10-29T22:08:07.735Z,6.65
2022-10-29T22:11:00.342Z,5.72
2022-10-29T22:13:51.152Z,6.08
2022-10-29T22:16:42.396Z,6.22
2022-10-29T22:19:33.295Z,6.08
2022-10-29T22:22:24.457Z,6.40
2022-10-29T22:25:15.444Z,6.78
2022-10-29T22:28:06.877Z,6.42
2022-10-29T22:31:02.839Z,5.85
2022-10-29T22:33:55.047Z,6.05
2022-10-29T22:36:45.870Z,6.70
2022-10-29T22:39:37.055Z,6.67
2022-10-29T22:42:27.974Z,6.60
2022-10-29T22:45:19.215Z,6.60
2022-10-29T22:48:10.268Z,7.05
2022-10-29T22:51:03.264Z,6.30
2022-10-29T22:53:55.247Z,7.22
2022-10-29T22:56:46.420Z,6.55
2022-10-29T22:59:37.574Z,6.53
2022-10-29T23:02:28.810Z,6.70
2022-10-29T23:05:20.067Z,5.92
2022-10-29T23:08:11.299Z,6.47
2022-10-29T23:11:06.336Z,6.62
2022-10-29T23:13:59.507Z,6.75
2022-10-29T23:16:50.427Z,5.80
2022-10-29T23:19:41.409Z,6.37
2022-10-29T23:22:32.551Z,6.17
2022-10-29T23:25:23.421Z,6.25
2022-10-29T23:28:14.317Z,5.25
2022-10-29T23:31:07.562Z,5.42
2022-10-29T23:33:59.325Z,5.20
2022-10-29T23:36:50.415Z,4.75
2022-10-29T23:39:41.461Z,4.45
2022-10-29T23:42:33.652Z,4.30
2022-10-29T23:45:35.207Z,4.65
2022-10-29T23:48:29.683Z,4.53
2022-10-29T23:51:39.613Z,4.22
2022-10-29T23:54:34.656Z,4.00
2022-10-29T23:57:29.138Z,5.03
